Terminal Aerodrome Forecast
Issued by NWS

Home | Current Version | Previous Version | Text Only | Print | Product List | Glossary On
Versions: 1 2 3 4 5 6 7 8 9 10 11 12 13 14 15 16 17 18 19 20 21 22 23 24 25 26 27 28 29 30 31 32 33
000
FTUS41 KCTP 250559
TAFLNS
TAF
KLNS 250559Z 2506/2606 10013G21KT P6SM -RA BKN015 OVC025
     FM250800 10012G20KT 5SM -RA BR OVC007
     FM251400 10006KT 5SM BR OVC007
     FM251900 18003KT 6SM BR BKN035
     FM252200 21003KT 5SM BR VCSH BKN035 OVC150=

USA.gov is the U.S. government's official web portal to all federal, state and local government web resources and services.